Ankeny, IA

1:10 PM CDT on September 21, 2019 (GMT -0500)
Ankeny Regional

Weather History for KIKV - August, 2019

Change the Weather History Date:

Saturday, August 24, 2019

  Actual Average (KDSM) Record (KDSM)
Temperature  
Mean Temperature 67 °F -  
Max Temperature 75 °F 82 °F 104 °F (1936)
Min Temperature 59 °F 62 °F 40 °F (1891)
Cooling Degree Days 2    
Growing Degree Days 17 (Base 50)    
Moisture  
Dew Point 56 °F    
Average Humidity 72    
Maximum Humidity 88    
Minimum Humidity 50    
Precipitation  
Precipitation 0.00 in - - ()
Sea Level Pressure  
Sea Level Pressure 30.17 in    
Wind  
Wind Speed 8 mph ()    
Max Wind Speed 16 mph    
Max Gust Speed 22 mph    
Visibility 9.9 miles    
Events      
Averages and records for this station are not official NWS values.
T = Trace of Precipitation, MM = Missing Value Source: Averaged Metar Reports

Daily Weather History Graph

Daily Weather History Graph

Search for Another Location

Airport or City:

Astronomy

Aug. 24, 2019 Rise Set
Actual Time 6:31 AM CDT 8:00 PM CDT
Civil Twilight 6:02 AM CDT 8:29 PM CDT
Nautical Twilight 5:27 AM CDT 9:04 PM CDT
Astronomical Twilight 4:50 AM CDT 9:41 PM CDT
Moon 12:23 AM CDT (8/24) 3:19 PM CDT (8/24)
Length of Visible Light 14h 27m
Length of Day
13h 28m
Last Quarter, 39% of the Moon is Illuminated
Aug 24
Last Quarter
Aug 30
New
Sep 5
First Quarter
Sep 13
Full
Sep 21
Last Quarter

Hourly Weather History & Observations

Time (CDT) Temp. Dew Point Humidity Pressure Visibility Wind Dir Wind Speed Gust Speed Precip Events Conditions
12:15 AM 62.6 °F 59.0 °F 88% 30.19 in 10.0 mi East 5.8 mph - N/A   Clear
12:35 AM 62.6 °F 57.2 °F 82% 30.20 in 10.0 mi East 8.1 mph - N/A   Clear
12:55 AM 62.6 °F 57.2 °F 82% 30.20 in 10.0 mi ESE 8.1 mph - N/A   Clear
1:15 AM 62.6 °F 57.2 °F 82% 30.20 in 10.0 mi East 6.9 mph - N/A   Clear
1:35 AM 62.6 °F 57.2 °F 82% 30.19 in 10.0 mi East 8.1 mph - N/A   Clear
1:55 AM 60.8 °F 57.2 °F 88% 30.19 in 10.0 mi East 5.8 mph - N/A   Clear
2:15 AM 60.8 °F 57.2 °F 88% 30.19 in 10.0 mi East 6.9 mph - N/A   Clear
2:35 AM 60.8 °F 57.2 °F 88% 30.20 in 10.0 mi ESE 6.9 mph - N/A   Clear
2:55 AM 60.8 °F 57.2 °F 88% 30.20 in 10.0 mi ESE 6.9 mph - N/A   Clear
3:15 AM 60.8 °F 57.2 °F 88% 30.20 in 10.0 mi ESE 5.8 mph - N/A   Clear
3:35 AM 60.8 °F 57.2 °F 88% 30.21 in 10.0 mi ESE 5.8 mph - N/A   Clear
3:55 AM 60.8 °F 57.2 °F 88% 30.21 in 10.0 mi ESE 4.6 mph - N/A   Clear
4:15 AM 60.8 °F 57.2 °F 88% 30.21 in 10.0 mi Variable 3.5 mph - N/A   Clear
4:35 AM 60.8 °F 57.2 °F 88% 30.21 in 10.0 mi SE 5.8 mph - N/A   Clear
4:55 AM 59.0 °F 55.4 °F 88% 30.21 in 10.0 mi ESE 4.6 mph - N/A   Clear
5:15 AM 59.0 °F 55.4 °F 88% 30.21 in 10.0 mi East 4.6 mph - N/A   Clear
5:35 AM 59.0 °F 55.4 °F 88% 30.21 in 10.0 mi ESE 5.8 mph - N/A   Clear
5:55 AM 59.0 °F 55.4 °F 88% 30.21 in 10.0 mi ESE 6.9 mph - N/A   Clear
6:15 AM 59.0 °F 55.4 °F 88% 30.21 in 10.0 mi East 6.9 mph - N/A   Clear
6:35 AM 59.0 °F 55.4 °F 88% 30.21 in 10.0 mi ESE 6.9 mph - N/A   Clear
6:55 AM 59.0 °F 55.4 °F 88% 30.21 in 10.0 mi ESE 6.9 mph - N/A   Clear
7:15 AM 59.0 °F 55.4 °F 88% 30.22 in 10.0 mi ESE 4.6 mph - N/A   Clear
7:35 AM 59.0 °F 55.4 °F 88% 30.22 in 10.0 mi East 4.6 mph - N/A   Clear
7:55 AM 59.0 °F 55.4 °F 88% 30.22 in 10.0 mi East 5.8 mph - N/A   Clear
8:15 AM 60.8 °F 55.4 °F 82% 30.23 in 10.0 mi SE 6.9 mph - N/A   Mostly Cloudy
8:35 AM 62.6 °F 55.4 °F 77% 30.22 in 10.0 mi SE 10.4 mph - N/A   Mostly Cloudy
8:55 AM 62.6 °F 55.4 °F 77% 30.22 in - SE 11.5 mph - N/A   Partly Cloudy
9:15 AM 64.4 °F 55.4 °F 73% 30.22 in 10.0 mi SE 12.7 mph - N/A   Partly Cloudy
9:35 AM 64.4 °F 55.4 °F 73% 30.22 in 10.0 mi SE 11.5 mph 18.4 mph N/A   Clear
9:55 AM 66.2 °F 55.4 °F 68% 30.22 in 10.0 mi SE 10.4 mph 17.3 mph N/A   Clear
10:15 AM 68.0 °F 55.4 °F 64% 30.21 in 10.0 mi ESE 9.2 mph - N/A   Clear
10:35 AM 66.2 °F 55.4 °F 68% 30.21 in 10.0 mi SE 12.7 mph - N/A   Clear
10:55 AM 68.0 °F 55.4 °F 64% 30.20 in 10.0 mi ESE 12.7 mph - N/A   Clear
11:15 AM 69.8 °F 55.4 °F 60% 30.20 in 10.0 mi ESE 15.0 mph 20.7 mph N/A   Clear
11:35 AM 71.6 °F 55.4 °F 57% 30.20 in 10.0 mi ESE 16.1 mph - N/A   Clear
11:55 AM 71.6 °F 55.4 °F 57% 30.19 in 10.0 mi ESE 12.7 mph - N/A   Clear
12:15 PM 71.6 °F 57.2 °F 60% 30.18 in 10.0 mi ESE 12.7 mph - N/A   Clear
12:35 PM 71.6 °F 55.4 °F 57% 30.18 in 10.0 mi SE 12.7 mph 19.6 mph N/A   Clear
12:55 PM 73.4 °F 55.4 °F 53% 30.16 in 10.0 mi ESE 15.0 mph 21.9 mph N/A   Clear
1:15 PM 71.6 °F 55.4 °F 57% 30.16 in 10.0 mi East 15.0 mph - N/A   Clear
1:35 PM 71.6 °F 55.4 °F 57% 30.16 in 10.0 mi ESE 13.8 mph 19.6 mph N/A   Clear
1:55 PM 73.4 °F 57.2 °F 57% 30.16 in 10.0 mi SE 10.4 mph 18.4 mph N/A   Scattered Clouds
2:15 PM 75.2 °F 57.2 °F 53% 30.16 in 10.0 mi SE 8.1 mph 17.3 mph N/A   Mostly Cloudy
2:35 PM 73.4 °F 55.4 °F 53% 30.15 in 5.0 mi SE 10.4 mph 17.3 mph N/A   Haze
2:55 PM 73.4 °F 57.2 °F 57% 30.14 in 10.0 mi ESE 10.4 mph 20.7 mph N/A   Mostly Cloudy
3:15 PM 73.4 °F 55.4 °F 53% 30.14 in 10.0 mi ESE 11.5 mph 17.3 mph N/A   Overcast
3:35 PM 73.4 °F 53.6 °F 50% 30.13 in 10.0 mi ESE 12.7 mph 18.4 mph N/A   Scattered Clouds
3:55 PM 75.2 °F 55.4 °F 50% 30.13 in 10.0 mi SSE 11.5 mph - N/A   Scattered Clouds
4:15 PM 73.4 °F 55.4 °F 53% 30.13 in 10.0 mi SE 11.5 mph - N/A   Mostly Cloudy
4:35 PM 73.4 °F 57.2 °F 57% 30.13 in 10.0 mi SE 13.8 mph - N/A   Mostly Cloudy
4:55 PM 73.4 °F 57.2 °F 57% 30.12 in 10.0 mi ESE 10.4 mph - N/A   Mostly Cloudy
5:15 PM 73.4 °F 57.2 °F 57% 30.12 in 10.0 mi SE 12.7 mph 18.4 mph N/A   Mostly Cloudy
5:35 PM 73.4 °F 57.2 °F 57% 30.12 in 10.0 mi ESE 11.5 mph 17.3 mph N/A   Scattered Clouds
5:55 PM 73.4 °F 57.2 °F 57% 30.12 in 10.0 mi ESE 8.1 mph - N/A   Scattered Clouds
6:15 PM 73.4 °F 57.2 °F 57% 30.12 in 10.0 mi SE 9.2 mph - N/A   Partly Cloudy
6:35 PM 71.6 °F 57.2 °F 60% 30.12 in 10.0 mi SE 8.1 mph 15.0 mph N/A   Partly Cloudy
6:55 PM 71.6 °F 57.2 °F 60% 30.12 in 10.0 mi SE 9.2 mph - N/A   Mostly Cloudy
7:15 PM 69.8 °F 57.2 °F 64% 30.11 in 10.0 mi ESE 6.9 mph - N/A   Scattered Clouds
7:35 PM 68.0 °F 57.2 °F 68% 30.11 in 10.0 mi East 4.6 mph - N/A   Clear
7:55 PM 68.0 °F 57.2 °F 68% 30.10 in 10.0 mi East 6.9 mph - N/A   Clear
8:15 PM 66.2 °F 59.0 °F 78% 30.11 in 10.0 mi ESE 5.8 mph - N/A   Clear
8:35 PM 66.2 °F 57.2 °F 73% 30.10 in 10.0 mi East 8.1 mph - N/A   Clear
8:55 PM 66.2 °F 57.2 °F 73% 30.10 in 10.0 mi ESE 6.9 mph - N/A   Clear
9:15 PM 66.2 °F 57.2 °F 73% 30.10 in 10.0 mi ESE 5.8 mph - N/A   Clear
9:35 PM 66.2 °F 57.2 °F 73% 30.11 in 10.0 mi ESE 6.9 mph - N/A   Clear
9:55 PM 66.2 °F 57.2 °F 73% 30.11 in 10.0 mi ESE 5.8 mph - N/A   Clear
10:35 PM 66.2 °F 57.2 °F 73% 30.10 in 10.0 mi SE 9.2 mph - N/A   Partly Cloudy
10:55 PM 66.2 °F 57.2 °F 73% 30.10 in 10.0 mi ESE 10.4 mph - N/A   Mostly Cloudy
11:15 PM 66.2 °F 57.2 °F 73% 30.11 in 10.0 mi SE 8.1 mph - N/A   Mostly Cloudy
11:35 PM 66.2 °F 57.2 °F 73% 30.11 in 10.0 mi SE 8.1 mph - N/A   Scattered Clouds
11:55 PM 64.4 °F 57.2 °F 77% 30.10 in 10.0 mi SE 5.8 mph - N/A   Mostly Cloudy